createdAt,value
2019-02-21T00:00:46.837Z,97823.31
2019-02-21T00:02:26.990Z,97822.95
2019-02-21T00:04:02.903Z,97829.02
2019-02-21T00:05:49.330Z,97825.17
2019-02-21T00:07:28.842Z,97817.63
2019-02-21T00:09:08.358Z,97823.66
2019-02-21T00:10:46.681Z,97819.11
2019-02-21T00:12:23.486Z,97821.52
2019-02-21T00:14:03.876Z,97824.19
2019-02-21T00:15:39.645Z,97818.86
2019-02-21T00:17:15.883Z,97821.14
2019-02-21T00:18:51.959Z,97817.45
2019-02-21T00:20:28.383Z,97823.11
2019-02-21T00:22:09.264Z,97826.71
2019-02-21T00:23:47.420Z,97825.03
2019-02-21T00:25:22.844Z,97824.67
2019-02-21T00:27:00.371Z,97819.42
2019-02-21T00:28:37.272Z,97825.66
2019-02-21T00:30:17.616Z,97821.41
2019-02-21T00:31:54.317Z,97826.81
2019-02-21T00:33:29.862Z,97834.64
2019-02-21T00:35:05.320Z,97833.89
2019-02-21T00:36:47.113Z,97841.39
2019-02-21T00:38:22.885Z,97839.89
2019-02-21T00:39:58.893Z,97838.73
2019-02-21T00:41:35.470Z,97845.02
2019-02-21T00:43:15.102Z,97845.09
2019-02-21T00:44:50.998Z,97836.37
2019-02-21T00:46:27.585Z,97838.34
2019-02-21T00:48:04.434Z,97843.28
2019-02-21T00:49:48.561Z,97838.78
2019-02-21T00:51:26.260Z,97837.47
2019-02-21T00:53:06.691Z,97832.62
2019-02-21T00:54:42.403Z,97834.39
2019-02-21T00:56:18.219Z,97835.91
2019-02-21T00:57:53.984Z,97834.02
2019-02-21T00:59:29.769Z,97833.69
2019-02-21T01:01:06.509Z,97833.31
2019-02-21T01:02:44.487Z,97833.69
2019-02-21T01:04:29.212Z,97822.76
2019-02-21T01:06:05.389Z,97825.30
2019-02-21T01:07:40.984Z,97821.34
2019-02-21T01:09:17.076Z,97817.28
2019-02-21T01:10:55.228Z,97824.95
2019-02-21T01:12:34.298Z,97828.44
2019-02-21T01:14:09.938Z,97823.67
2019-02-21T01:15:45.501Z,97827.46
2019-02-21T01:17:21.777Z,97827.33
2019-02-21T01:18:58.293Z,97826.17
2019-02-21T01:20:34.557Z,97831.18
2019-02-21T01:22:10.058Z,97832.50
2019-02-21T01:23:48.736Z,97842.38
2019-02-21T01:25:26.793Z,97838.69
2019-02-21T01:27:04.178Z,97841.44
2019-02-21T01:28:41.621Z,97838.36
2019-02-21T01:30:17.937Z,97833.55
2019-02-21T01:31:54.419Z,97831.48
2019-02-21T01:33:30.075Z,97830.50
2019-02-21T01:35:05.986Z,97826.75
2019-02-21T01:36:41.798Z,97826.38
2019-02-21T01:38:18.226Z,97825.41
2019-02-21T01:39:53.763Z,97829.97
2019-02-21T01:41:29.718Z,97827.25
2019-02-21T01:43:05.489Z,97825.66
2019-02-21T01:44:41.415Z,97821.23
2019-02-21T01:46:18.585Z,97819.44
2019-02-21T01:47:57.184Z,97817.55
2019-02-21T01:49:32.728Z,97814.77
2019-02-21T01:51:08.278Z,97812.47
2019-02-21T01:52:44.273Z,97807.59
2019-02-21T01:54:25.256Z,97813.71
2019-02-21T01:56:00.620Z,97815.82
2019-02-21T01:57:36.217Z,97819.53
2019-02-21T01:59:11.990Z,97818.08
2019-02-21T02:00:47.439Z,97822.86
2019-02-21T02:02:23.257Z,97820.38
2019-02-21T02:03:58.784Z,97824.70
2019-02-21T02:05:34.254Z,97820.73
2019-02-21T02:07:10.069Z,97823.80
2019-02-21T02:08:45.808Z,97829.19
2019-02-21T02:10:21.107Z,97823.73
2019-02-21T02:11:57.320Z,97825.80
2019-02-21T02:13:33.186Z,97828.55
2019-02-21T02:15:10.003Z,97834.66
2019-02-21T02:17:04.712Z,97825.70
2019-02-21T02:18:40.928Z,97828.81
2019-02-21T02:20:16.237Z,97830.79
2019-02-21T02:21:52.078Z,97838.31
2019-02-21T02:23:27.504Z,97839.62
2019-02-21T02:25:03.286Z,97837.86
2019-02-21T02:26:40.676Z,97838.54
2019-02-21T02:28:17.028Z,97831.77
2019-02-21T02:29:52.378Z,97836.05
2019-02-21T02:31:27.950Z,97849.33
2019-02-21T02:33:03.987Z,97854.59
2019-02-21T02:34:39.500Z,97855.39
2019-02-21T02:36:16.939Z,97854.95
2019-02-21T02:37:52.686Z,97857.02
2019-02-21T02:39:28.262Z,97861.15
2019-02-21T02:41:06.010Z,97868.16
2019-02-21T02:42:48.226Z,97864.12
2019-02-21T02:44:25.415Z,97864.83
2019-02-21T02:46:01.453Z,97861.35
2019-02-21T02:47:37.246Z,97863.63
2019-02-21T02:49:12.468Z,97874.91
2019-02-21T02:50:51.499Z,97879.43
2019-02-21T02:52:26.759Z,97868.42
2019-02-21T02:54:02.070Z,97873.13
2019-02-21T02:55:37.317Z,97875.59
2019-02-21T02:57:14.582Z,97881.56
2019-02-21T02:58:55.724Z,97881.17
2019-02-21T03:00:35.008Z,97886.95
2019-02-21T03:02:16.490Z,97884.91
2019-02-21T03:03:54.194Z,97900.27
2019-02-21T03:05:29.970Z,97898.83
2019-02-21T03:07:05.198Z,97904.48
2019-02-21T03:08:42.113Z,97896.53
2019-02-21T03:10:18.468Z,97898.11
2019-02-21T03:11:53.668Z,97904.86
2019-02-21T03:13:29.436Z,97913.14
2019-02-21T03:15:06.506Z,97910.63
2019-02-21T03:16:42.132Z,97915.64
2019-02-21T03:18:17.823Z,97912.19
2019-02-21T03:19:53.388Z,97918.84
2019-02-21T03:21:29.868Z,97915.98
2019-02-21T03:23:05.532Z,97916.99
2019-02-21T03:24:40.808Z,97913.84
2019-02-21T03:26:16.404Z,97901.73
2019-02-21T03:27:51.814Z,97905.44
2019-02-21T03:29:28.729Z,97907.80
2019-02-21T03:31:04.601Z,97911.27
2019-02-21T03:32:40.363Z,97915.17
2019-02-21T03:34:16.572Z,97908.73
2019-02-21T03:35:51.842Z,97907.84
2019-02-21T03:37:27.271Z,97912.67
2019-02-21T03:39:03.510Z,97912.36
2019-02-21T03:40:39.168Z,97916.06
2019-02-21T03:42:14.404Z,97919.50
2019-02-21T03:43:51.201Z,97908.36
2019-02-21T03:45:26.771Z,97908.20
2019-02-21T03:47:05.986Z,97907.52
2019-02-21T03:48:41.851Z,97905.91
2019-02-21T03:50:17.463Z,97904.39
2019-02-21T03:51:53.099Z,97899.59
2019-02-21T03:53:31.786Z,97891.27
2019-02-21T03:55:08.059Z,97895.13
2019-02-21T03:56:45.026Z,97894.40
2019-02-21T03:58:20.379Z,97893.66
2019-02-21T03:59:57.520Z,97896.63
2019-02-21T04:01:33.096Z,97882.06
2019-02-21T04:03:08.494Z,97887.15
2019-02-21T04:04:45.819Z,97882.76
2019-02-21T04:06:21.237Z,97877.34
2019-02-21T04:07:56.937Z,97874.84
2019-02-21T04:09:33.632Z,97873.90
2019-02-21T04:11:12.558Z,97876.77
2019-02-21T04:12:50.167Z,97869.03
2019-02-21T04:14:30.618Z,97869.44
2019-02-21T04:16:08.399Z,97877.31
2019-02-21T04:17:44.292Z,97875.34
2019-02-21T04:19:19.893Z,97878.36
2019-02-21T04:20:56.076Z,97868.73
2019-02-21T04:22:31.443Z,97867.04
2019-02-21T04:24:08.329Z,97875.46
2019-02-21T04:25:44.297Z,97872.18
2019-02-21T04:27:22.707Z,97866.97
2019-02-21T04:28:58.753Z,97864.44
2019-02-21T04:30:37.964Z,97861.77
2019-02-21T04:32:16.902Z,97858.65
2019-02-21T04:33:52.038Z,97863.89
2019-02-21T04:35:27.977Z,97855.57
2019-02-21T04:37:03.175Z,97860.45
2019-02-21T04:38:41.554Z,97854.83
2019-02-21T04:40:16.884Z,97857.77
2019-02-21T04:41:52.253Z,97850.43
2019-02-21T04:43:27.696Z,97851.95
2019-02-21T04:45:09.177Z,97856.08
2019-02-21T04:46:45.134Z,97850.84
2019-02-21T04:48:20.533Z,97846.64
2019-02-21T04:49:56.204Z,97845.69
2019-02-21T04:51:31.697Z,97847.24
2019-02-21T04:53:07.111Z,97842.78
2019-02-21T04:54:42.347Z,97836.78
2019-02-21T04:56:28.908Z,97837.73
2019-02-21T04:58:06.892Z,97833.30
2019-02-21T04:59:42.643Z,97834.08
2019-02-21T05:01:18.092Z,97834.83
2019-02-21T05:02:53.601Z,97832.09
2019-02-21T05:04:29.870Z,97830.36
2019-02-21T05:06:07.884Z,97836.84
2019-02-21T05:07:43.306Z,97834.89
2019-02-21T05:09:18.659Z,97834.54
2019-02-21T05:10:54.040Z,97835.70
2019-02-21T05:12:29.285Z,97834.91
2019-02-21T05:14:04.534Z,97830.68
2019-02-21T05:15:40.047Z,97834.39
2019-02-21T05:17:15.934Z,97842.48
2019-02-21T05:18:51.489Z,97834.72
2019-02-21T05:20:27.110Z,97842.66
2019-02-21T05:22:02.522Z,97832.09
2019-02-21T05:23:38.350Z,97831.83
2019-02-21T05:25:14.168Z,97828.92
2019-02-21T05:26:53.268Z,97825.21
2019-02-21T05:28:33.214Z,97821.52
2019-02-21T05:30:16.519Z,97826.70
2019-02-21T05:32:07.697Z,97829.41
2019-02-21T05:33:53.968Z,97826.50
2019-02-21T05:36:00.434Z,97827.89
2019-02-21T05:38:00.535Z,97820.95
2019-02-21T05:40:04.278Z,97818.02
2019-02-21T05:42:14.347Z,97818.79
2019-02-21T05:44:07.915Z,97824.61
2019-02-21T05:46:00.447Z,97824.58
2019-02-21T05:47:54.732Z,97819.70
2019-02-21T05:49:51.944Z,97819.91
2019-02-21T05:51:41.244Z,97819.30
2019-02-21T05:53:32.958Z,97816.97
2019-02-21T05:55:36.932Z,97821.20
2019-02-21T05:57:25.729Z,97815.62
2019-02-21T05:59:24.153Z,97805.71
2019-02-21T06:01:24.044Z,97810.55
2019-02-21T06:03:36.080Z,97815.73
2019-02-21T06:05:27.247Z,97816.27
2019-02-21T06:07:37.480Z,97815.25
2019-02-21T06:09:31.522Z,97828.91
2019-02-21T06:11:37.491Z,97825.75
2019-02-21T06:13:45.759Z,97828.01
2019-02-21T06:15:40.000Z,97828.99
2019-02-21T06:17:39.468Z,97840.75
2019-02-21T06:19:34.452Z,97843.08
2019-02-21T06:21:34.564Z,97843.16
2019-02-21T06:23:27.178Z,97851.03
2019-02-21T06:25:14.218Z,97854.16
2019-02-21T06:27:12.486Z,97857.39
2019-02-21T06:29:28.559Z,97857.80
2019-02-21T06:31:07.457Z,97863.66
2019-02-21T06:32:44.590Z,97864.08
2019-02-21T06:34:20.076Z,97863.12
2019-02-21T06:35:55.549Z,97866.48
2019-02-21T06:37:30.706Z,97868.94
2019-02-21T06:39:08.784Z,97867.54
2019-02-21T06:41:00.063Z,97870.04
2019-02-21T06:42:45.751Z,97869.14
2019-02-21T06:44:23.591Z,97869.16
2019-02-21T06:46:03.361Z,97880.09
2019-02-21T06:47:38.578Z,97877.31
2019-02-21T06:49:15.192Z,97880.23
2019-02-21T06:50:51.104Z,97882.06
2019-02-21T06:52:26.530Z,97879.16
2019-02-21T06:54:04.614Z,97880.28
2019-02-21T06:55:45.401Z,97882.89
2019-02-21T06:57:25.477Z,97886.31
2019-02-21T06:59:01.222Z,97888.03
2019-02-21T07:00:50.765Z,97891.72
2019-02-21T07:02:28.014Z,97893.16
2019-02-21T07:04:03.639Z,97891.98
2019-02-21T07:05:39.342Z,97900.88
2019-02-21T07:07:16.870Z,97907.97
2019-02-21T07:10:33.945Z,97889.81
2019-02-21T07:12:28.234Z,97915.11
2019-02-21T07:14:05.785Z,97915.42
2019-02-21T07:15:41.224Z,97920.99
2019-02-21T07:17:19.888Z,97920.69
2019-02-21T07:19:00.040Z,97926.55
2019-02-21T07:20:43.987Z,97920.41
2019-02-21T07:22:22.342Z,97914.81
2019-02-21T07:24:00.846Z,97913.45
2019-02-21T07:25:44.679Z,97918.28
2019-02-21T07:27:25.286Z,97921.16
2019-02-21T07:29:01.198Z,97913.45
2019-02-21T07:30:36.934Z,97921.38
2019-02-21T07:32:13.211Z,97923.50
2019-02-21T07:33:50.278Z,97924.06
2019-02-21T07:35:26.517Z,97922.45
2019-02-21T07:37:18.197Z,97929.73
2019-02-21T07:38:45.745Z,97933.16
2019-02-21T07:40:21.209Z,97937.00
2019-02-21T07:41:59.368Z,97937.63
2019-02-21T07:43:36.884Z,97944.38
2019-02-21T07:45:13.609Z,97943.23
2019-02-21T07:46:50.101Z,97949.48
2019-02-21T07:48:29.941Z,97949.48
2019-02-21T07:50:07.383Z,97951.09
2019-02-21T07:51:42.562Z,97950.74
2019-02-21T07:53:18.811Z,97958.63
2019-02-21T07:55:02.107Z,97961.92
2019-02-21T07:56:41.991Z,97963.38
2019-02-21T07:58:13.861Z,97972.22
2019-02-21T07:59:54.033Z,97978.15
2019-02-21T08:01:30.174Z,97972.79
2019-02-21T08:03:05.681Z,97980.12
2019-02-21T08:04:45.247Z,97973.20
2019-02-21T08:06:20.836Z,97977.73
2019-02-21T08:07:59.216Z,97986.09
2019-02-21T08:09:36.159Z,97992.38
2019-02-21T08:11:14.480Z,97988.37
2019-02-21T08:12:55.290Z,97992.90
2019-02-21T08:14:32.670Z,97987.40
2019-02-21T08:16:12.526Z,97989.41
2019-02-21T08:17:46.883Z,97983.27
2019-02-21T08:19:24.772Z,97990.72
2019-02-21T08:21:01.012Z,97996.92
2019-02-21T08:22:37.152Z,97996.79
2019-02-21T08:24:12.732Z,98001.91
2019-02-21T08:25:52.095Z,98000.27
2019-02-21T08:27:35.285Z,97999.95
2019-02-21T08:29:20.662Z,97994.36
2019-02-21T08:31:00.490Z,97993.98
2019-02-21T08:32:54.549Z,97992.08
2019-02-21T08:34:35.443Z,97986.27
2019-02-21T08:36:14.813Z,97987.88
2019-02-21T08:37:57.335Z,97985.81
2019-02-21T08:39:43.768Z,97983.54
2019-02-21T08:41:28.170Z,97971.14
2019-02-21T08:43:15.735Z,97971.77
2019-02-21T08:44:56.057Z,97971.98
2019-02-21T08:46:40.317Z,97966.75
2019-02-21T08:48:21.400Z,97957.67
2019-02-21T08:49:59.857Z,97947.99
2019-02-21T08:51:40.471Z,97945.65
2019-02-21T08:53:19.853Z,97945.45
2019-02-21T08:55:00.485Z,97939.08
2019-02-21T08:56:36.335Z,97931.28
2019-02-21T08:58:11.765Z,97923.91
2019-02-21T08:59:48.225Z,97924.67
2019-02-21T09:01:28.318Z,97914.58
2019-02-21T09:03:03.988Z,97912.22
2019-02-21T09:04:40.168Z,97912.22
2019-02-21T09:06:30.053Z,97913.61
2019-02-21T09:08:18.206Z,97915.55
2019-02-21T09:10:11.410Z,97907.98
2019-02-21T09:12:19.496Z,97915.13
2019-02-21T09:14:25.352Z,97905.62
2019-02-21T09:16:03.142Z,97906.94
2019-02-21T09:17:48.324Z,97903.20
2019-02-21T09:20:08.778Z,97900.76
2019-02-21T09:22:00.717Z,97898.14
2019-02-21T09:23:48.790Z,97897.44
2019-02-21T09:25:34.788Z,97898.22
2019-02-21T09:27:35.529Z,97900.19
2019-02-21T09:29:53.506Z,97900.84
2019-02-21T09:32:22.391Z,97898.89
2019-02-21T09:34:20.881Z,97904.33
2019-02-21T09:38:24.878Z,97896.96
2019-02-21T09:40:05.787Z,97896.53
2019-02-21T09:41:43.368Z,97886.28
2019-02-21T09:43:22.655Z,97884.09
2019-02-21T09:45:03.961Z,97892.57
2019-02-21T09:46:43.099Z,97887.03
2019-02-21T09:48:22.137Z,97898.14
2019-02-21T09:49:58.522Z,97890.45
2019-02-21T09:51:36.664Z,97895.20
2019-02-21T09:53:21.093Z,97890.83
2019-02-21T09:55:04.768Z,97892.86
2019-02-21T09:56:52.742Z,97892.17
2019-02-21T09:58:26.081Z,97899.91
2019-02-21T10:00:05.826Z,97900.28
2019-02-21T10:01:42.447Z,97902.23
2019-02-21T10:03:18.346Z,97896.09
2019-02-21T10:05:04.962Z,97903.73
2019-02-21T10:06:42.547Z,97907.27
2019-02-21T10:08:35.219Z,97914.70
2019-02-21T10:10:03.134Z,97910.48
2019-02-21T10:11:40.901Z,97915.63
2019-02-21T10:13:20.296Z,97911.47
2019-02-21T10:14:56.311Z,97916.53
2019-02-21T10:16:34.607Z,97915.70
2019-02-21T10:18:31.818Z,97916.39
2019-02-21T10:20:15.011Z,97913.75
2019-02-21T10:21:54.086Z,97909.16
2019-02-21T10:23:32.224Z,97908.87
2019-02-21T10:25:11.816Z,97915.08
2019-02-21T10:26:48.838Z,97920.28
2019-02-21T10:28:27.963Z,97918.12
2019-02-21T10:30:13.735Z,97924.61
2019-02-21T10:31:54.810Z,97920.94
2019-02-21T10:33:33.317Z,97925.83
2019-02-21T10:35:14.730Z,97917.69
2019-02-21T10:36:51.542Z,97915.08
2019-02-21T10:38:36.982Z,97922.75
2019-02-21T10:40:16.991Z,97916.01
2019-02-21T10:41:57.695Z,97915.50
2019-02-21T10:43:41.446Z,97906.37
2019-02-21T10:45:18.400Z,97913.47
2019-02-21T10:46:59.647Z,97906.08
2019-02-21T10:48:37.972Z,97905.56
2019-02-21T10:50:21.528Z,97906.98
2019-02-21T10:51:59.237Z,97905.22
2019-02-21T10:53:48.492Z,97907.09
2019-02-21T10:55:27.629Z,97910.26
2019-02-21T10:57:04.275Z,97907.92
2019-02-21T10:58:40.064Z,97913.60
2019-02-21T11:00:21.880Z,97914.66
2019-02-21T11:01:57.996Z,97910.48
2019-02-21T11:03:38.870Z,97902.22
2019-02-21T11:05:14.451Z,97897.91
2019-02-21T11:06:50.486Z,97895.05
2019-02-21T11:08:29.402Z,97897.16
2019-02-21T11:10:12.840Z,97897.77
2019-02-21T11:11:50.798Z,97897.35
2019-02-21T11:13:30.725Z,97895.69
2019-02-21T11:15:28.191Z,97891.27
2019-02-21T11:17:11.156Z,97884.84
2019-02-21T11:18:56.140Z,97888.79
2019-02-21T11:20:35.265Z,97879.43
2019-02-21T11:22:14.233Z,97876.98
2019-02-21T11:23:56.570Z,97880.20
2019-02-21T11:25:32.702Z,97871.02
2019-02-21T11:27:09.462Z,97869.59
2019-02-21T11:28:50.746Z,97865.67
2019-02-21T11:30:32.205Z,97863.23
2019-02-21T11:32:13.354Z,97871.16
2019-02-21T11:33:50.885Z,97873.42
2019-02-21T11:35:27.542Z,97868.84
2019-02-21T11:37:02.706Z,97861.41
2019-02-21T11:38:40.625Z,97859.23
2019-02-21T11:40:18.105Z,97856.23
2019-02-21T11:41:53.666Z,97857.02
2019-02-21T11:43:28.983Z,97853.95
2019-02-21T11:45:05.708Z,97854.58
2019-02-21T11:46:44.771Z,97850.67
2019-02-21T11:48:20.444Z,97858.09
2019-02-21T11:49:57.120Z,97851.47
2019-02-21T11:51:32.843Z,97856.36
2019-02-21T11:53:12.925Z,97858.75
2019-02-21T11:54:51.371Z,97855.93
2019-02-21T11:56:34.807Z,97864.41
2019-02-21T11:58:10.400Z,97870.02
2019-02-21T11:59:46.590Z,97869.63
2019-02-21T12:01:24.988Z,97867.49
2019-02-21T12:03:06.139Z,97873.03
2019-02-21T12:04:43.321Z,97870.09
2019-02-21T12:06:23.990Z,97872.30
2019-02-21T12:08:05.721Z,97869.63
2019-02-21T12:09:47.578Z,97878.15
2019-02-21T12:11:24.623Z,97882.02
2019-02-21T12:13:00.678Z,97878.19
2019-02-21T12:14:36.044Z,97878.92
2019-02-21T12:16:15.215Z,97876.66
2019-02-21T12:18:09.652Z,97886.09
2019-02-21T12:19:53.691Z,97881.84
2019-02-21T12:21:33.005Z,97880.67
2019-02-21T12:23:22.266Z,97878.71
2019-02-21T12:24:57.487Z,97879.53
2019-02-21T12:26:35.245Z,97882.08
2019-02-21T12:28:23.066Z,97884.34
2019-02-21T12:29:57.907Z,97883.99
2019-02-21T12:31:33.186Z,97880.41
2019-02-21T12:33:09.095Z,97881.33
2019-02-21T12:34:52.706Z,97872.34
2019-02-21T12:36:34.534Z,97873.00
2019-02-21T12:38:12.195Z,97879.87
2019-02-21T12:39:55.184Z,97882.15
2019-02-21T12:41:37.183Z,97891.56
2019-02-21T12:43:14.136Z,97879.09
2019-02-21T12:44:55.737Z,97866.81
2019-02-21T12:46:36.799Z,97873.75
2019-02-21T12:48:16.880Z,97872.50
2019-02-21T12:49:56.441Z,97880.61
2019-02-21T12:51:32.227Z,97870.42
2019-02-21T12:53:11.115Z,97872.05
2019-02-21T12:54:46.896Z,97851.61
2019-02-21T12:56:23.069Z,97854.36
2019-02-21T12:58:00.065Z,97852.36
2019-02-21T12:59:36.806Z,97846.66
2019-02-21T13:01:13.292Z,97858.59
2019-02-21T13:03:01.209Z,97852.61
2019-02-21T13:04:42.834Z,97851.37
2019-02-21T13:06:21.644Z,97859.53
2019-02-21T13:07:57.264Z,97857.03
2019-02-21T13:09:40.096Z,97855.00
2019-02-21T13:11:19.794Z,97856.14
2019-02-21T13:12:58.907Z,97860.78
2019-02-21T13:14:34.206Z,97855.49
2019-02-21T13:16:10.852Z,97837.83
2019-02-21T13:17:54.559Z,97840.33
2019-02-21T13:19:32.530Z,97842.47
2019-02-21T13:21:11.130Z,97833.44
2019-02-21T13:22:49.908Z,97834.59
2019-02-21T13:24:28.808Z,97836.78
2019-02-21T13:26:08.266Z,97837.86
2019-02-21T13:27:49.724Z,97838.19
2019-02-21T13:29:28.116Z,97833.91
2019-02-21T13:31:12.824Z,97835.95
2019-02-21T13:35:30.112Z,97840.98
2019-02-21T13:37:09.537Z,97835.72
2019-02-21T13:38:57.106Z,97827.20
2019-02-21T13:40:53.256Z,97830.11
2019-02-21T13:42:33.743Z,97839.39
2019-02-21T13:44:17.665Z,97844.07
2019-02-21T13:45:58.434Z,97850.59
2019-02-21T13:47:39.242Z,97844.14
2019-02-21T13:49:20.320Z,97842.29
2019-02-21T13:51:09.947Z,97843.73
2019-02-21T13:52:51.283Z,97844.77
2019-02-21T13:54:28.288Z,97847.95
2019-02-21T13:56:04.804Z,97837.27
2019-02-21T13:57:53.940Z,97846.80
2019-02-21T13:59:34.794Z,97837.30
2019-02-21T14:01:14.389Z,97846.14
2019-02-21T14:02:54.072Z,97846.09
2019-02-21T14:04:31.129Z,97849.66
2019-02-21T14:06:06.552Z,97850.02
2019-02-21T14:07:41.642Z,97853.11
2019-02-21T14:09:24.388Z,97853.66
2019-02-21T14:11:00.051Z,97856.98
2019-02-21T14:12:38.190Z,97864.52
2019-02-21T14:14:20.510Z,97864.11
2019-02-21T14:16:02.681Z,97862.73
2019-02-21T14:17:46.672Z,97862.91
2019-02-21T14:19:23.620Z,97861.01
2019-02-21T14:21:01.298Z,97864.28
2019-02-21T14:22:47.095Z,97866.29
2019-02-21T14:24:36.036Z,97866.29
2019-02-21T14:26:12.708Z,97860.95
2019-02-21T14:27:58.709Z,97870.28
2019-02-21T14:29:57.690Z,97865.23
2019-02-21T14:31:34.372Z,97872.84
2019-02-21T14:33:22.410Z,97874.52
2019-02-21T14:35:02.618Z,97873.34
2019-02-21T14:36:43.744Z,97876.75
2019-02-21T14:38:44.980Z,97871.16
2019-02-21T14:40:38.533Z,97870.56
2019-02-21T14:42:32.670Z,97866.05
2019-02-21T14:44:11.026Z,97867.01
2019-02-21T14:45:55.951Z,97870.28
2019-02-21T14:47:38.428Z,97875.48
2019-02-21T14:49:20.454Z,97874.13
2019-02-21T14:51:10.351Z,97872.61
2019-02-21T14:52:59.866Z,97879.31
2019-02-21T14:54:43.658Z,97883.77
2019-02-21T14:56:25.788Z,97877.20
2019-02-21T14:58:03.280Z,97881.61
2019-02-21T14:59:48.344Z,97877.55
2019-02-21T15:01:53.481Z,97876.83
2019-02-21T15:03:50.253Z,97884.20
2019-02-21T15:05:36.423Z,97883.95
2019-02-21T15:07:32.595Z,97881.41
2019-02-21T15:09:13.288Z,97881.27
2019-02-21T15:11:00.839Z,97876.94
2019-02-21T15:12:47.046Z,97877.50
2019-02-21T15:14:37.216Z,97881.20
2019-02-21T15:16:18.114Z,97870.20
2019-02-21T15:18:13.213Z,97881.38
2019-02-21T15:20:13.736Z,97879.87
2019-02-21T15:21:58.735Z,97877.09
2019-02-21T15:23:43.481Z,97877.00
2019-02-21T15:25:21.832Z,97879.91
2019-02-21T15:27:08.549Z,97887.10
2019-02-21T15:28:42.371Z,97883.41
2019-02-21T15:30:24.563Z,97882.94
2019-02-21T15:32:11.196Z,97894.27
2019-02-21T15:33:49.385Z,97892.27
2019-02-21T15:35:31.649Z,97888.58
2019-02-21T15:37:30.440Z,97894.03
2019-02-21T15:39:01.804Z,97891.49
2019-02-21T15:40:40.256Z,97894.16
2019-02-21T15:42:22.204Z,97888.33
2019-02-21T15:44:30.305Z,97886.80
2019-02-21T15:46:10.885Z,97873.23
2019-02-21T15:47:53.452Z,97883.12
2019-02-21T15:49:41.228Z,97881.61
2019-02-21T15:51:22.711Z,97883.97
2019-02-21T15:53:07.343Z,97880.46
2019-02-21T15:54:53.559Z,97882.42
2019-02-21T15:56:29.266Z,97883.11
2019-02-21T15:58:08.715Z,97892.25
2019-02-21T15:59:52.512Z,97890.70
2019-02-21T16:01:47.047Z,97899.26
2019-02-21T16:03:16.603Z,97891.07
2019-02-21T16:05:21.563Z,97892.44
2019-02-21T16:07:20.217Z,97887.53
2019-02-21T16:09:15.957Z,97895.03
2019-02-21T16:11:10.794Z,97900.93
2019-02-21T16:12:51.188Z,97900.89
2019-02-21T16:14:47.102Z,97904.44
2019-02-21T16:16:32.091Z,97900.30
2019-02-21T16:18:13.846Z,97904.58
2019-02-21T16:20:22.448Z,97916.38
2019-02-21T16:22:02.783Z,97917.18
2019-02-21T16:23:51.273Z,97918.42
2019-02-21T16:25:30.589Z,97926.42
2019-02-21T16:27:11.034Z,97927.84
2019-02-21T16:29:02.278Z,97927.45
2019-02-21T16:31:04.063Z,97926.86
2019-02-21T16:32:41.671Z,97920.84
2019-02-21T16:34:20.426Z,97919.70
2019-02-21T16:36:09.639Z,97920.69
2019-02-21T16:37:53.774Z,97928.53
2019-02-21T16:39:54.983Z,97929.52
2019-02-21T16:41:53.064Z,97935.00
2019-02-21T16:43:40.994Z,97939.90
2019-02-21T16:45:25.659Z,97940.89
2019-02-21T16:47:05.797Z,97936.45
2019-02-21T16:49:29.643Z,97930.04
2019-02-21T16:51:14.760Z,97931.41
2019-02-21T16:53:01.353Z,97929.10
2019-02-21T16:54:37.514Z,97936.33
2019-02-21T16:56:21.581Z,97939.64
2019-02-21T16:58:01.561Z,97934.59
2019-02-21T16:59:43.212Z,97942.42
2019-02-21T17:01:18.751Z,97943.41
2019-02-21T17:02:55.084Z,97942.63
2019-02-21T17:05:09.281Z,97941.45
2019-02-21T17:06:52.868Z,97944.39
2019-02-21T17:08:34.558Z,97953.14
2019-02-21T17:10:17.849Z,97956.45
2019-02-21T17:11:55.199Z,97946.72
2019-02-21T17:13:34.232Z,97951.19
2019-02-21T17:15:13.216Z,97948.45
2019-02-21T17:16:58.867Z,97951.98
2019-02-21T17:18:38.853Z,97951.02
2019-02-21T17:20:19.659Z,97955.48
2019-02-21T17:22:04.171Z,97959.77
2019-02-21T17:23:46.334Z,97954.91
2019-02-21T17:25:30.403Z,97965.24
2019-02-21T17:27:10.584Z,97959.39
2019-02-21T17:28:48.271Z,97970.51
2019-02-21T17:30:25.150Z,97973.45
2019-02-21T17:32:04.932Z,97979.48
2019-02-21T17:33:46.808Z,97986.09
2019-02-21T17:35:22.427Z,97984.14
2019-02-21T17:37:00.501Z,97987.27
2019-02-21T17:38:38.812Z,97987.83
2019-02-21T17:40:18.691Z,97979.67
2019-02-21T17:42:03.326Z,97983.73
2019-02-21T17:43:53.353Z,97986.30
2019-02-21T17:45:42.219Z,97989.61
2019-02-21T17:47:21.878Z,97987.85
2019-02-21T17:49:15.614Z,97989.42
2019-02-21T17:51:00.246Z,97996.62
2019-02-21T17:52:40.388Z,98001.69
2019-02-21T17:54:19.356Z,98005.44
2019-02-21T17:56:01.217Z,98005.44
2019-02-21T17:57:44.431Z,98004.61
2019-02-21T17:59:24.995Z,98005.03
2019-02-21T18:01:23.312Z,98008.51
2019-02-21T18:03:08.762Z,98004.07
2019-02-21T18:04:56.290Z,98011.23
2019-02-21T18:06:34.519Z,98003.83
2019-02-21T18:08:12.010Z,98011.08
2019-02-21T18:09:48.641Z,98010.65
2019-02-21T18:11:28.238Z,98006.61
2019-02-21T18:13:15.983Z,98003.69
2019-02-21T18:15:07.490Z,98010.13
2019-02-21T18:16:44.799Z,98010.51
2019-02-21T18:18:25.083Z,98010.91
2019-02-21T18:20:00.490Z,98012.66
2019-02-21T18:21:39.267Z,98010.70
2019-02-21T18:23:16.715Z,98010.30
2019-02-21T18:24:53.314Z,98015.16
2019-02-21T18:26:50.272Z,98019.39
2019-02-21T18:28:32.236Z,98012.37
2019-02-21T18:30:19.984Z,98021.12
2019-02-21T18:31:58.406Z,98018.58
2019-02-21T18:33:36.429Z,98019.56
2019-02-21T18:35:12.685Z,98026.56
2019-02-21T18:36:52.617Z,98027.34
2019-02-21T18:38:57.063Z,98027.16
2019-02-21T18:40:45.726Z,98027.34
2019-02-21T18:42:31.009Z,98028.92
2019-02-21T18:44:21.186Z,98034.95
2019-02-21T18:46:18.608Z,98032.44
2019-02-21T18:47:57.337Z,98036.34
2019-02-21T18:49:49.307Z,98035.37
2019-02-21T18:51:25.897Z,98030.16
2019-02-21T18:53:02.067Z,98032.31
2019-02-21T18:54:42.554Z,98038.75
2019-02-21T18:56:17.791Z,98042.06
2019-02-21T18:57:55.335Z,98040.52
2019-02-21T18:59:42.543Z,98047.53
2019-02-21T19:01:27.807Z,98048.70
2019-02-21T19:03:07.290Z,98049.53
2019-02-21T19:04:50.558Z,98054.99
2019-02-21T19:06:27.711Z,98060.06
2019-02-21T19:08:05.505Z,98060.46
2019-02-21T19:09:49.342Z,98071.17
2019-02-21T19:11:32.189Z,98069.62
2019-02-21T19:13:08.014Z,98071.95
2019-02-21T19:14:48.843Z,98067.48
2019-02-21T19:16:27.500Z,98074.88
2019-02-21T19:18:05.459Z,98072.16
2019-02-21T19:19:48.652Z,98075.89
2019-02-21T19:21:26.740Z,98090.68
2019-02-21T19:23:04.585Z,98092.26
2019-02-21T19:24:43.510Z,98094.80
2019-02-21T19:26:26.330Z,98091.33
2019-02-21T19:28:20.776Z,98098.73
2019-02-21T19:30:05.161Z,98104.56
2019-02-21T19:31:58.036Z,98108.84
2019-02-21T19:33:36.034Z,98109.83
2019-02-21T19:35:13.824Z,98119.56
2019-02-21T19:37:05.044Z,98121.70
2019-02-21T19:39:05.361Z,98121.70
2019-02-21T19:40:42.203Z,98122.69
2019-02-21T19:42:18.307Z,98132.22
2019-02-21T19:44:08.786Z,98134.17
2019-02-21T19:45:49.697Z,98144.86
2019-02-21T19:47:28.311Z,98139.22
2019-02-21T19:49:20.972Z,98146.23
2019-02-21T19:51:05.498Z,98146.62
2019-02-21T19:53:03.151Z,98153.23
2019-02-21T19:54:39.143Z,98157.13
2019-02-21T19:56:38.375Z,98155.77
2019-02-21T19:58:17.149Z,98162.77